createdAt,value
2019-03-09T00:00:12.292Z,2.20
2019-03-09T00:01:21.817Z,2.72
2019-03-09T00:02:26.003Z,2.10
2019-03-09T00:03:30.436Z,2.60
2019-03-09T00:04:34.714Z,2.40
2019-03-09T00:05:38.877Z,2.35
2019-03-09T00:06:43.083Z,2.22
2019-03-09T00:07:47.462Z,2.87
2019-03-09T00:08:51.648Z,2.70
2019-03-09T00:09:55.935Z,2.47
2019-03-09T00:11:00.113Z,2.30
2019-03-09T00:12:04.360Z,2.65
2019-03-09T00:13:08.719Z,2.08
2019-03-09T00:14:13.066Z,2.85
2019-03-09T00:15:17.369Z,2.90
2019-03-09T00:16:21.670Z,2.33
2019-03-09T00:17:26.275Z,2.60
2019-03-09T00:18:30.823Z,2.75
2019-03-09T00:19:35.163Z,2.20
2019-03-09T00:20:39.472Z,2.85
2019-03-09T00:21:43.656Z,2.70
2019-03-09T00:22:51.911Z,2.75
2019-03-09T00:24:14.090Z,2.45
2019-03-09T00:25:29.446Z,2.85
2019-03-09T00:26:47.291Z,2.50
2019-03-09T00:28:03.904Z,2.52
2019-03-09T00:29:33.042Z,2.52
2019-03-09T00:30:59.145Z,2.65
2019-03-09T00:32:06.931Z,2.40
2019-03-09T00:33:11.243Z,3.25
2019-03-09T00:34:15.527Z,2.98
2019-03-09T00:35:19.752Z,2.30
2019-03-09T00:36:24.008Z,2.83
2019-03-09T00:37:28.288Z,2.30
2019-03-09T00:38:32.520Z,2.95
2019-03-09T00:39:36.825Z,2.27
2019-03-09T00:40:41.172Z,2.62
2019-03-09T00:41:45.456Z,2.80
2019-03-09T00:42:49.622Z,2.25
2019-03-09T00:43:53.944Z,2.08
2019-03-09T00:44:58.149Z,3.25
2019-03-09T00:46:02.282Z,2.50
2019-03-09T00:47:06.476Z,2.65
2019-03-09T00:48:10.628Z,2.25
2019-03-09T00:49:14.910Z,2.60
2019-03-09T00:50:19.381Z,2.95
2019-03-09T00:51:24.089Z,2.10
2019-03-09T00:52:28.408Z,2.95
2019-03-09T00:53:32.691Z,3.02
2019-03-09T00:54:37.121Z,2.40
2019-03-09T00:55:41.277Z,2.20
2019-03-09T00:56:45.590Z,2.92
2019-03-09T00:57:49.768Z,2.42
2019-03-09T00:58:54.090Z,2.75
2019-03-09T00:59:59.231Z,2.50
2019-03-09T01:01:03.509Z,2.52
2019-03-09T01:02:07.856Z,2.95
2019-03-09T01:03:12.116Z,2.80
2019-03-09T01:04:16.394Z,2.55
2019-03-09T01:05:20.692Z,2.60
2019-03-09T01:06:24.967Z,2.35
2019-03-09T01:07:29.173Z,2.50
2019-03-09T01:08:33.343Z,1.90
2019-03-09T01:09:37.622Z,2.77
2019-03-09T01:10:41.787Z,2.27
2019-03-09T01:11:46.047Z,2.87
2019-03-09T01:12:50.203Z,2.70
2019-03-09T01:13:54.820Z,2.37
2019-03-09T01:14:59.168Z,2.75
2019-03-09T01:16:03.409Z,2.67
2019-03-09T01:17:07.727Z,3.20
2019-03-09T01:18:12.282Z,2.85
2019-03-09T01:19:16.583Z,2.60
2019-03-09T01:20:20.886Z,2.52
2019-03-09T01:21:25.153Z,2.87
2019-03-09T01:22:29.367Z,2.58
2019-03-09T01:23:33.563Z,2.58
2019-03-09T01:24:37.872Z,2.67
2019-03-09T01:25:42.033Z,2.92
2019-03-09T01:26:46.261Z,2.40
2019-03-09T01:27:50.586Z,2.10
2019-03-09T01:28:54.831Z,2.08
2019-03-09T01:29:58.969Z,2.65
2019-03-09T01:31:03.125Z,2.50
2019-03-09T01:32:07.385Z,2.70
2019-03-09T01:33:11.693Z,2.35
2019-03-09T01:34:15.993Z,2.40
2019-03-09T01:35:20.199Z,2.00
2019-03-09T01:36:24.571Z,2.33
2019-03-09T01:37:28.867Z,2.33
2019-03-09T01:38:33.115Z,2.17
2019-03-09T01:39:37.413Z,2.33
2019-03-09T01:40:41.669Z,2.87
2019-03-09T01:41:45.790Z,2.20
2019-03-09T01:42:50.097Z,2.22
2019-03-09T01:43:54.297Z,2.47
2019-03-09T01:44:58.469Z,2.20
2019-03-09T01:46:02.752Z,2.30
2019-03-09T01:47:07.158Z,2.40
2019-03-09T01:48:11.534Z,2.50
2019-03-09T01:49:15.736Z,2.62
2019-03-09T01:50:20.101Z,2.50
2019-03-09T01:51:24.459Z,2.40
2019-03-09T01:52:28.849Z,3.00
2019-03-09T01:53:36.651Z,2.60
2019-03-09T01:54:39.142Z,2.60
2019-03-09T01:55:43.754Z,2.83
2019-03-09T01:56:48.043Z,2.10
2019-03-09T01:57:52.397Z,2.33
2019-03-09T01:58:56.700Z,2.05
2019-03-09T02:00:00.985Z,2.22
2019-03-09T02:01:05.505Z,2.27
2019-03-09T02:02:09.755Z,1.92
2019-03-09T02:03:14.063Z,2.55
2019-03-09T02:04:18.234Z,2.15
2019-03-09T02:05:22.471Z,2.42
2019-03-09T02:06:26.661Z,2.17
2019-03-09T02:07:30.969Z,2.60
2019-03-09T02:08:35.127Z,2.40
2019-03-09T02:09:39.312Z,2.60
2019-03-09T02:10:43.523Z,2.70
2019-03-09T02:11:47.860Z,2.62
2019-03-09T02:12:51.993Z,2.60
2019-03-09T02:13:56.285Z,2.17
2019-03-09T02:15:00.577Z,2.40
2019-03-09T02:16:04.875Z,2.45
2019-03-09T02:17:09.271Z,2.52
2019-03-09T02:18:13.396Z,2.25
2019-03-09T02:19:17.740Z,2.30
2019-03-09T02:20:22.509Z,2.27
2019-03-09T02:21:26.732Z,2.05
2019-03-09T02:22:30.917Z,2.50
2019-03-09T02:23:35.120Z,2.47
2019-03-09T02:24:39.432Z,2.35
2019-03-09T02:25:43.832Z,2.95
2019-03-09T02:26:48.134Z,2.30
2019-03-09T02:27:52.354Z,2.20
2019-03-09T02:28:56.595Z,2.55
2019-03-09T02:30:00.908Z,2.70
2019-03-09T02:31:05.072Z,2.15
2019-03-09T02:32:09.278Z,2.00
2019-03-09T02:33:13.664Z,2.20
2019-03-09T02:34:18.097Z,2.10
2019-03-09T02:35:22.265Z,2.25
2019-03-09T02:36:26.536Z,2.15
2019-03-09T02:37:30.829Z,2.50
2019-03-09T02:38:59.928Z,1.80
2019-03-09T02:40:29.407Z,1.90
2019-03-09T02:41:33.553Z,2.60
2019-03-09T02:42:37.846Z,2.62
2019-03-09T02:43:42.001Z,2.25
2019-03-09T02:44:46.282Z,1.90
2019-03-09T02:45:51.008Z,2.22
2019-03-09T02:46:55.307Z,2.10
2019-03-09T02:47:59.633Z,2.75
2019-03-09T02:49:03.876Z,2.10
2019-03-09T02:50:09.495Z,2.50
2019-03-09T02:51:13.765Z,2.12
2019-03-09T02:52:18.012Z,2.10
2019-03-09T02:53:22.218Z,2.70
2019-03-09T02:54:26.523Z,1.82
2019-03-09T02:55:30.798Z,2.17
2019-03-09T02:56:35.014Z,2.40
2019-03-09T02:57:39.211Z,2.25
2019-03-09T02:58:43.585Z,2.20
2019-03-09T02:59:48.474Z,2.12
2019-03-09T03:01:00.901Z,2.08
2019-03-09T03:02:21.706Z,1.90
2019-03-09T03:03:26.045Z,2.70
2019-03-09T03:04:30.291Z,2.10
2019-03-09T03:05:34.580Z,2.25
2019-03-09T03:06:38.787Z,2.17
2019-03-09T03:07:43.175Z,2.00
2019-03-09T03:08:47.534Z,2.12
2019-03-09T03:09:51.796Z,2.00
2019-03-09T03:10:56.053Z,2.33
2019-03-09T03:12:00.406Z,1.85
2019-03-09T03:13:04.843Z,2.05
2019-03-09T03:14:08.947Z,2.00
2019-03-09T03:15:14.734Z,1.40
2019-03-09T03:16:19.001Z,1.92
2019-03-09T03:17:23.372Z,2.12
2019-03-09T03:18:27.741Z,1.67
2019-03-09T03:19:32.058Z,1.90
2019-03-09T03:20:36.289Z,1.85
2019-03-09T03:21:40.613Z,2.12
2019-03-09T03:22:44.902Z,2.20
2019-03-09T03:23:49.250Z,2.25
2019-03-09T03:24:53.452Z,2.08
2019-03-09T03:25:57.753Z,2.33
2019-03-09T03:27:02.051Z,2.55
2019-03-09T03:28:06.282Z,1.72
2019-03-09T03:29:10.407Z,1.80
2019-03-09T03:30:14.656Z,1.80
2019-03-09T03:31:18.924Z,1.98
2019-03-09T03:32:23.938Z,1.72
2019-03-09T03:33:28.120Z,1.77
2019-03-09T03:34:32.431Z,1.80
2019-03-09T03:35:36.676Z,1.87
2019-03-09T03:36:41.080Z,2.12
2019-03-09T03:37:45.380Z,2.33
2019-03-09T03:38:49.656Z,2.17
2019-03-09T03:39:54.277Z,1.50
2019-03-09T03:40:58.633Z,2.05
2019-03-09T03:42:02.808Z,2.15
2019-03-09T03:43:07.073Z,1.75
2019-03-09T03:44:11.411Z,2.40
2019-03-09T03:45:16.002Z,3.05
2019-03-09T03:46:20.344Z,2.45
2019-03-09T03:47:24.505Z,2.52
2019-03-09T03:48:28.831Z,1.80
2019-03-09T03:49:33.266Z,1.75
2019-03-09T03:50:37.595Z,1.62
2019-03-09T03:51:41.833Z,1.92
2019-03-09T03:52:46.048Z,1.70
2019-03-09T03:53:50.420Z,1.90
2019-03-09T03:54:54.625Z,1.75
2019-03-09T03:55:58.960Z,1.87
2019-03-09T03:57:03.220Z,2.05
2019-03-09T03:58:07.425Z,1.62
2019-03-09T03:59:11.859Z,1.60
2019-03-09T04:00:16.330Z,2.20
2019-03-09T04:01:20.549Z,2.42
2019-03-09T04:02:24.846Z,1.55
2019-03-09T04:03:29.239Z,2.10
2019-03-09T04:04:33.515Z,2.22
2019-03-09T04:05:37.812Z,1.90
2019-03-09T04:06:42.597Z,2.00
2019-03-09T04:07:47.158Z,2.17
2019-03-09T04:08:51.852Z,2.10
2019-03-09T04:09:56.195Z,1.98
2019-03-09T04:11:00.644Z,1.70
2019-03-09T04:12:04.861Z,1.90
2019-03-09T04:13:09.060Z,1.75
2019-03-09T04:14:13.338Z,1.92
2019-03-09T04:15:17.682Z,1.80
2019-03-09T04:16:22.079Z,1.70
2019-03-09T04:17:26.372Z,1.95
2019-03-09T04:18:30.700Z,2.50
2019-03-09T04:19:35.016Z,2.10
2019-03-09T04:20:39.316Z,2.40
2019-03-09T04:21:43.763Z,1.95
2019-03-09T04:22:48.161Z,2.00
2019-03-09T04:23:52.432Z,1.95
2019-03-09T04:24:56.691Z,2.25
2019-03-09T04:26:00.958Z,2.15
2019-03-09T04:27:05.695Z,1.85
2019-03-09T04:28:09.980Z,2.10
2019-03-09T04:29:14.164Z,1.80
2019-03-09T04:30:18.433Z,2.15
2019-03-09T04:31:22.760Z,1.75
2019-03-09T04:32:27.167Z,1.98
2019-03-09T04:33:31.517Z,1.50
2019-03-09T04:34:35.706Z,1.90
2019-03-09T04:35:39.914Z,1.75
2019-03-09T04:36:44.111Z,2.05
2019-03-09T04:37:48.407Z,1.95
2019-03-09T04:38:52.735Z,1.40
2019-03-09T04:39:57.021Z,1.60
2019-03-09T04:41:01.220Z,1.55
2019-03-09T04:42:05.471Z,2.00
2019-03-09T04:43:09.628Z,1.40
2019-03-09T04:44:13.808Z,1.77
2019-03-09T04:45:18.088Z,1.75
2019-03-09T04:46:22.254Z,1.90
2019-03-09T04:47:26.551Z,1.40
2019-03-09T04:48:30.784Z,1.72
2019-03-09T04:49:34.919Z,1.75
2019-03-09T04:50:39.119Z,1.70
2019-03-09T04:51:43.413Z,1.80
2019-03-09T04:52:47.531Z,1.60
2019-03-09T04:53:51.800Z,1.60
2019-03-09T04:54:55.941Z,2.00
2019-03-09T04:56:00.142Z,1.98
2019-03-09T04:57:04.424Z,1.70
2019-03-09T04:58:08.553Z,2.15
2019-03-09T04:59:12.835Z,1.60
2019-03-09T05:00:17.268Z,1.47
2019-03-09T05:01:21.460Z,1.30
2019-03-09T05:02:25.771Z,1.12
2019-03-09T05:03:29.986Z,1.50
2019-03-09T05:04:58.942Z,1.32
2019-03-09T05:06:03.482Z,1.07
2019-03-09T05:07:07.764Z,1.22
2019-03-09T05:08:33.731Z,1.60
2019-03-09T05:10:13.481Z,1.10
2019-03-09T05:11:24.260Z,1.02
2019-03-09T05:12:28.515Z,1.75
2019-03-09T05:14:05.408Z,1.40
2019-03-09T05:15:10.733Z,1.50
2019-03-09T05:16:15.032Z,1.30
2019-03-09T05:17:19.361Z,1.52
2019-03-09T05:18:23.672Z,1.65
2019-03-09T05:19:27.980Z,1.20
2019-03-09T05:20:32.299Z,1.40
2019-03-09T05:21:36.599Z,1.45
2019-03-09T05:22:41.145Z,2.12
2019-03-09T05:23:45.405Z,1.47
2019-03-09T05:24:49.665Z,1.60
2019-03-09T05:25:53.979Z,1.30
2019-03-09T05:26:58.163Z,1.20
2019-03-09T05:28:02.431Z,1.25
2019-03-09T05:29:06.709Z,1.40
2019-03-09T05:30:12.693Z,1.22
2019-03-09T05:31:17.037Z,1.80
2019-03-09T05:32:21.299Z,1.77
2019-03-09T05:33:25.662Z,1.65
2019-03-09T05:34:30.025Z,1.30
2019-03-09T05:35:34.306Z,1.50
2019-03-09T05:36:38.652Z,1.35
2019-03-09T05:37:43.492Z,1.62
2019-03-09T05:38:47.937Z,1.85
2019-03-09T05:39:52.105Z,1.20
2019-03-09T05:40:56.328Z,1.35
2019-03-09T05:42:00.591Z,1.20
2019-03-09T05:43:05.273Z,1.85
2019-03-09T05:44:09.567Z,1.20
2019-03-09T05:45:13.844Z,1.60
2019-03-09T05:46:18.165Z,1.90
2019-03-09T05:47:22.467Z,1.75
2019-03-09T05:48:26.867Z,1.77
2019-03-09T05:49:30.999Z,1.80
2019-03-09T05:50:35.274Z,1.90
2019-03-09T05:51:39.554Z,1.60
2019-03-09T05:52:43.893Z,1.98
2019-03-09T05:53:48.163Z,1.80
2019-03-09T05:54:52.467Z,1.70
2019-03-09T05:55:56.715Z,1.77
2019-03-09T05:57:00.875Z,1.85
2019-03-09T05:58:05.093Z,1.60
2019-03-09T05:59:09.386Z,1.07
2019-03-09T06:00:15.625Z,1.75
2019-03-09T06:01:19.825Z,1.17
2019-03-09T06:02:24.016Z,1.20
2019-03-09T06:03:28.345Z,2.05
2019-03-09T06:04:32.604Z,1.12
2019-03-09T06:05:47.718Z,1.67
2019-03-09T06:06:51.909Z,1.57
2019-03-09T06:07:56.187Z,1.30
2019-03-09T06:09:00.401Z,1.47
2019-03-09T06:10:04.769Z,1.35
2019-03-09T06:11:08.956Z,1.80
2019-03-09T06:12:13.209Z,1.72
2019-03-09T06:13:17.401Z,1.70
2019-03-09T06:14:21.536Z,1.65
2019-03-09T06:15:25.729Z,1.62
2019-03-09T06:16:29.908Z,1.45
2019-03-09T06:17:34.219Z,1.35
2019-03-09T06:18:38.383Z,1.30
2019-03-09T06:19:42.637Z,1.50
2019-03-09T06:20:46.935Z,1.47
2019-03-09T06:21:51.209Z,1.35
2019-03-09T06:22:55.407Z,1.35
2019-03-09T06:23:59.665Z,2.47
2019-03-09T06:25:03.986Z,1.22
2019-03-09T06:26:08.435Z,1.45
2019-03-09T06:27:12.728Z,1.20
2019-03-09T06:28:17.027Z,1.60
2019-03-09T06:29:21.357Z,1.25
2019-03-09T06:30:25.573Z,1.42
2019-03-09T06:31:29.901Z,1.90
2019-03-09T06:33:10.183Z,1.32
2019-03-09T06:34:14.535Z,1.37
2019-03-09T06:35:18.983Z,1.15
2019-03-09T06:37:12.241Z,1.55
2019-03-09T06:38:33.655Z,1.25
2019-03-09T06:39:47.123Z,1.30
2019-03-09T06:40:51.359Z,1.62
2019-03-09T06:42:26.878Z,1.10
2019-03-09T06:43:31.187Z,1.37
2019-03-09T06:44:35.481Z,1.20
2019-03-09T06:45:39.811Z,1.10
2019-03-09T06:46:43.977Z,1.17
2019-03-09T06:47:48.299Z,1.40
2019-03-09T06:48:52.553Z,1.10
2019-03-09T06:49:56.866Z,1.30
2019-03-09T06:51:01.093Z,1.70
2019-03-09T06:52:05.411Z,1.40
2019-03-09T06:53:09.651Z,1.45
2019-03-09T06:54:13.925Z,1.60
2019-03-09T06:55:18.296Z,1.65
2019-03-09T06:56:22.569Z,1.72
2019-03-09T06:57:26.847Z,1.47
2019-03-09T06:58:31.163Z,2.05
2019-03-09T06:59:35.451Z,1.50
2019-03-09T07:00:41.091Z,1.67
2019-03-09T07:01:45.309Z,1.57
2019-03-09T07:02:49.609Z,2.00
2019-03-09T07:03:53.934Z,1.47
2019-03-09T07:04:58.221Z,2.12
2019-03-09T07:06:02.657Z,1.35
2019-03-09T07:07:06.947Z,1.70
2019-03-09T07:08:11.266Z,1.55
2019-03-09T07:09:15.641Z,1.55
2019-03-09T07:10:19.899Z,1.67
2019-03-09T07:11:24.140Z,1.62
2019-03-09T07:12:28.473Z,1.60
2019-03-09T07:13:32.617Z,1.65
2019-03-09T07:15:20.053Z,1.60
2019-03-09T07:16:24.303Z,1.35
2019-03-09T07:17:28.679Z,1.30
2019-03-09T07:18:35.647Z,1.35
2019-03-09T07:19:39.931Z,1.67
2019-03-09T07:20:44.140Z,1.70
2019-03-09T07:21:48.386Z,1.40
2019-03-09T07:22:52.669Z,1.17
2019-03-09T07:23:56.845Z,1.67
2019-03-09T07:25:01.175Z,1.57
2019-03-09T07:26:24.888Z,1.72
2019-03-09T07:27:29.154Z,1.10
2019-03-09T07:28:33.492Z,1.22
2019-03-09T07:29:37.610Z,1.30
2019-03-09T07:30:41.847Z,2.25
2019-03-09T07:31:46.158Z,1.47
2019-03-09T07:32:52.518Z,1.47
2019-03-09T07:34:21.870Z,1.30
2019-03-09T07:35:26.183Z,1.30
2019-03-09T07:36:30.513Z,0.98
2019-03-09T07:37:34.839Z,1.50
2019-03-09T07:38:39.172Z,1.25
2019-03-09T07:39:43.497Z,1.12
2019-03-09T07:40:47.648Z,1.05
2019-03-09T07:41:51.815Z,1.05
2019-03-09T07:42:56.014Z,1.22
2019-03-09T07:44:00.354Z,1.37
2019-03-09T07:45:05.067Z,1.05
2019-03-09T07:46:09.453Z,0.98
2019-03-09T07:47:13.725Z,1.22
2019-03-09T07:48:17.949Z,1.07
2019-03-09T07:49:22.200Z,1.15
2019-03-09T07:50:26.387Z,1.00
2019-03-09T07:51:30.640Z,1.00
2019-03-09T07:52:36.571Z,1.00
2019-03-09T07:53:40.961Z,0.72
2019-03-09T07:54:45.316Z,1.00
2019-03-09T07:55:49.602Z,1.12
2019-03-09T07:56:53.891Z,0.70
2019-03-09T07:58:01.093Z,1.30
2019-03-09T07:59:24.331Z,1.15
2019-03-09T08:00:28.811Z,1.00
2019-03-09T08:01:33.147Z,0.93
2019-03-09T08:02:37.432Z,1.07
2019-03-09T08:03:41.609Z,1.17
2019-03-09T08:04:46.894Z,1.02
2019-03-09T08:05:51.167Z,1.02
2019-03-09T08:06:56.153Z,1.07
2019-03-09T08:08:00.485Z,0.80
2019-03-09T08:09:05.981Z,1.02
2019-03-09T08:10:13.687Z,0.90
2019-03-09T08:11:19.078Z,0.80
2019-03-09T08:12:24.134Z,1.07
2019-03-09T08:13:28.705Z,0.90
2019-03-09T08:14:33.345Z,1.47
2019-03-09T08:15:37.796Z,0.80
2019-03-09T08:16:42.172Z,0.95
2019-03-09T08:17:46.892Z,1.10
2019-03-09T08:18:51.127Z,1.05
2019-03-09T08:19:55.436Z,0.80
2019-03-09T08:20:59.832Z,0.85
2019-03-09T08:22:04.224Z,0.93
2019-03-09T08:23:08.582Z,0.85
2019-03-09T08:24:12.895Z,0.95
2019-03-09T08:25:17.568Z,0.75
2019-03-09T08:26:21.758Z,0.75
2019-03-09T08:27:26.029Z,1.05
2019-03-09T08:28:30.497Z,0.85
2019-03-09T08:29:34.746Z,0.90
2019-03-09T08:30:39.076Z,1.00
2019-03-09T08:31:43.436Z,0.90
2019-03-09T08:32:47.778Z,0.90
2019-03-09T08:33:52.090Z,0.70
2019-03-09T08:34:56.349Z,1.17
2019-03-09T08:36:00.629Z,1.10
2019-03-09T08:37:04.851Z,0.60
2019-03-09T08:38:09.033Z,1.00
2019-03-09T08:39:13.383Z,1.10
2019-03-09T08:40:18.106Z,1.02
2019-03-09T08:41:22.426Z,0.70
2019-03-09T08:42:26.731Z,0.80
2019-03-09T08:43:31.033Z,0.72
2019-03-09T08:44:35.289Z,0.98
2019-03-09T08:45:39.665Z,0.95
2019-03-09T08:46:44.021Z,0.80
2019-03-09T08:47:52.071Z,1.00
2019-03-09T08:48:55.612Z,0.80
2019-03-09T08:49:59.905Z,1.00
2019-03-09T08:51:04.233Z,0.80
2019-03-09T08:52:08.937Z,0.70
2019-03-09T08:53:13.102Z,0.80
2019-03-09T08:54:17.531Z,0.80
2019-03-09T08:55:21.863Z,0.88
2019-03-09T08:56:26.108Z,1.00
2019-03-09T08:57:30.321Z,0.70
2019-03-09T08:58:34.514Z,0.95
2019-03-09T08:59:38.746Z,0.90
2019-03-09T09:00:42.965Z,1.00
2019-03-09T09:01:47.213Z,1.10
2019-03-09T09:02:51.520Z,0.85
2019-03-09T09:03:55.825Z,0.90
2019-03-09T09:05:00.317Z,1.00
2019-03-09T09:06:04.733Z,1.07
2019-03-09T09:07:09.147Z,0.80
2019-03-09T09:08:13.447Z,0.95
2019-03-09T09:09:17.693Z,1.10
2019-03-09T09:10:21.926Z,1.40
2019-03-09T09:11:26.254Z,0.93
2019-03-09T09:12:30.569Z,0.93
2019-03-09T09:13:34.876Z,1.10
2019-03-09T09:14:39.167Z,0.95
2019-03-09T09:15:43.368Z,0.65
2019-03-09T09:16:47.694Z,1.10
2019-03-09T09:17:51.937Z,1.20
2019-03-09T09:18:56.289Z,0.75
2019-03-09T09:20:00.576Z,0.90
2019-03-09T09:21:04.915Z,1.00
2019-03-09T09:22:09.047Z,0.90
2019-03-09T09:23:13.403Z,1.00
2019-03-09T09:24:17.717Z,1.00
2019-03-09T09:25:22.033Z,1.00
2019-03-09T09:26:26.435Z,0.85
2019-03-09T09:27:30.958Z,1.00
2019-03-09T09:28:35.142Z,0.90
2019-03-09T09:29:39.420Z,1.15
2019-03-09T09:30:44.055Z,0.80
2019-03-09T09:31:48.643Z,0.80
2019-03-09T09:32:52.957Z,0.88
2019-03-09T09:33:58.454Z,0.95
2019-03-09T09:35:03.004Z,0.90
2019-03-09T09:36:07.203Z,0.70
2019-03-09T09:37:11.481Z,0.85
2019-03-09T09:38:15.667Z,0.62
2019-03-09T09:39:20.131Z,1.00
2019-03-09T09:40:24.360Z,1.10
2019-03-09T09:41:28.589Z,0.88
2019-03-09T09:42:32.891Z,0.70
2019-03-09T09:43:37.163Z,1.00
2019-03-09T09:44:41.473Z,0.80
2019-03-09T09:45:45.788Z,1.07
2019-03-09T09:46:49.951Z,0.90
2019-03-09T09:47:54.267Z,0.90
2019-03-09T09:48:58.561Z,0.70
2019-03-09T09:50:02.841Z,1.00
2019-03-09T09:51:07.199Z,0.88
2019-03-09T09:52:11.451Z,0.72
2019-03-09T09:53:15.779Z,0.90
2019-03-09T09:54:20.114Z,0.80
2019-03-09T09:55:24.435Z,0.72
2019-03-09T09:56:28.738Z,0.78
2019-03-09T09:57:32.965Z,0.57
2019-03-09T09:58:37.317Z,0.70
2019-03-09T09:59:41.536Z,0.60
2019-03-09T10:00:45.772Z,0.60
2019-03-09T10:01:50.039Z,0.70
2019-03-09T10:02:54.347Z,0.68
2019-03-09T10:03:58.712Z,0.75
2019-03-09T10:05:02.993Z,0.70
2019-03-09T10:06:07.270Z,0.70
2019-03-09T10:07:11.580Z,0.90
2019-03-09T10:08:16.130Z,0.80
2019-03-09T10:09:20.328Z,0.60
2019-03-09T10:10:24.681Z,0.60
2019-03-09T10:11:29.025Z,0.85
2019-03-09T10:12:33.285Z,0.90
2019-03-09T10:13:37.524Z,0.70
2019-03-09T10:14:41.827Z,1.00
2019-03-09T10:15:46.146Z,0.70
2019-03-09T10:16:50.433Z,0.85
2019-03-09T10:17:54.647Z,0.80
2019-03-09T10:18:59.161Z,0.80
2019-03-09T10:20:03.540Z,0.70
2019-03-09T10:21:07.877Z,0.80
2019-03-09T10:22:12.080Z,0.95
2019-03-09T10:23:16.298Z,0.57
2019-03-09T10:24:20.600Z,0.78
2019-03-09T10:25:24.941Z,0.60
2019-03-09T10:26:29.246Z,0.90
2019-03-09T10:27:33.489Z,0.80
2019-03-09T10:28:37.801Z,0.90
2019-03-09T10:29:42.059Z,0.72
2019-03-09T10:30:46.368Z,0.50
2019-03-09T10:31:50.681Z,0.88
2019-03-09T10:32:54.999Z,0.70
2019-03-09T10:33:59.301Z,0.50
2019-03-09T10:35:03.619Z,0.60
2019-03-09T10:36:08.145Z,0.60
2019-03-09T10:37:12.455Z,1.10
2019-03-09T10:38:16.663Z,0.60
2019-03-09T10:39:21.017Z,0.70
2019-03-09T10:40:25.321Z,1.02
2019-03-09T10:41:29.608Z,0.53
2019-03-09T10:42:33.917Z,0.68
2019-03-09T10:43:38.166Z,0.70
2019-03-09T10:44:42.379Z,0.70
2019-03-09T10:45:46.611Z,0.72
2019-03-09T10:46:50.917Z,0.60
2019-03-09T10:47:55.227Z,0.70
2019-03-09T10:48:59.859Z,0.60
2019-03-09T10:50:04.684Z,0.60
2019-03-09T10:51:08.979Z,0.60
2019-03-09T10:52:13.246Z,0.55
2019-03-09T10:53:17.539Z,0.60
2019-03-09T10:54:21.932Z,0.57
2019-03-09T10:55:26.299Z,0.60
2019-03-09T10:56:30.790Z,0.62
2019-03-09T10:57:35.187Z,0.70
2019-03-09T10:58:39.472Z,0.60
2019-03-09T10:59:43.820Z,0.62
2019-03-09T11:00:48.093Z,0.80
2019-03-09T11:01:52.395Z,0.50
2019-03-09T11:02:56.734Z,0.60
2019-03-09T11:04:01.057Z,0.68
2019-03-09T11:05:05.627Z,0.98
2019-03-09T11:06:10.239Z,0.42
2019-03-09T11:07:14.493Z,0.82
2019-03-09T11:08:18.731Z,0.50
2019-03-09T11:09:23.029Z,0.50
2019-03-09T11:10:27.391Z,0.60
2019-03-09T11:11:31.575Z,0.88
2019-03-09T11:12:35.855Z,1.02
2019-03-09T11:13:40.073Z,0.65
2019-03-09T11:14:44.277Z,0.50
2019-03-09T11:15:48.588Z,0.45
2019-03-09T11:16:52.877Z,0.60
2019-03-09T11:17:57.126Z,0.70
2019-03-09T11:19:01.414Z,0.50
2019-03-09T11:20:06.265Z,0.50
2019-03-09T11:21:10.554Z,0.60
2019-03-09T11:22:14.845Z,0.60
2019-03-09T11:23:19.115Z,0.60
2019-03-09T11:24:23.470Z,0.70
2019-03-09T11:25:27.759Z,0.60
2019-03-09T11:26:31.931Z,0.50
2019-03-09T11:27:36.106Z,0.50
2019-03-09T11:28:40.444Z,0.88
2019-03-09T11:29:44.723Z,0.50
2019-03-09T11:30:49.034Z,0.55
2019-03-09T11:31:53.657Z,0.50
2019-03-09T11:32:57.951Z,0.60
2019-03-09T11:34:02.293Z,0.60
2019-03-09T11:35:06.738Z,0.50
2019-03-09T11:36:10.951Z,0.60
2019-03-09T11:37:15.170Z,0.60
2019-03-09T11:38:19.425Z,0.60
2019-03-09T11:39:23.578Z,0.50
2019-03-09T11:40:27.818Z,0.50
2019-03-09T11:41:32.073Z,0.50
2019-03-09T11:42:36.383Z,0.60
2019-03-09T11:43:40.662Z,0.60
2019-03-09T11:44:44.942Z,0.60
2019-03-09T11:45:49.265Z,0.47
2019-03-09T11:46:53.505Z,0.40
2019-03-09T11:47:57.771Z,0.60
2019-03-09T11:49:01.983Z,0.60
2019-03-09T11:50:07.555Z,0.60
2019-03-09T11:51:12.787Z,0.75
2019-03-09T11:52:20.381Z,0.60
2019-03-09T11:53:23.022Z,0.40
2019-03-09T11:54:27.227Z,0.50
2019-03-09T11:55:31.508Z,0.53
2019-03-09T11:56:35.798Z,1.02
2019-03-09T11:57:39.981Z,0.55
2019-03-09T11:58:44.143Z,0.70
2019-03-09T11:59:48.423Z,0.60
2019-03-09T12:00:52.587Z,0.68
2019-03-09T12:01:56.813Z,0.80
2019-03-09T12:03:00.997Z,0.62
2019-03-09T12:04:05.281Z,0.50
2019-03-09T12:05:09.977Z,0.50
2019-03-09T12:06:14.191Z,0.60
2019-03-09T12:07:18.429Z,0.50
2019-03-09T12:08:22.761Z,0.60
2019-03-09T12:09:26.897Z,0.60
2019-03-09T12:10:31.211Z,0.50
2019-03-09T12:11:35.467Z,0.68
2019-03-09T12:12:39.740Z,0.50
2019-03-09T12:13:44.061Z,0.42
2019-03-09T12:14:48.208Z,0.60
2019-03-09T12:15:52.646Z,0.68
2019-03-09T12:16:56.838Z,0.60
2019-03-09T12:18:01.049Z,0.50
2019-03-09T12:19:05.340Z,0.47
2019-03-09T12:20:09.957Z,0.50
2019-03-09T12:21:14.271Z,0.37
2019-03-09T12:22:18.556Z,0.40
2019-03-09T12:23:24.547Z,0.40
2019-03-09T12:24:28.950Z,0.50
2019-03-09T12:25:33.121Z,0.50
2019-03-09T12:26:37.666Z,0.50
2019-03-09T12:27:42.776Z,0.80
2019-03-09T12:28:47.155Z,0.50
2019-03-09T12:29:51.399Z,0.50
2019-03-09T12:30:55.721Z,0.50
2019-03-09T12:32:00.050Z,0.50
2019-03-09T12:33:04.348Z,0.33
2019-03-09T12:34:08.744Z,0.50
2019-03-09T12:35:13.343Z,0.50
2019-03-09T12:36:17.539Z,0.60
2019-03-09T12:37:21.885Z,0.40
2019-03-09T12:38:26.208Z,0.70
2019-03-09T12:39:30.559Z,0.57
2019-03-09T12:40:34.852Z,0.42
2019-03-09T12:41:39.111Z,0.40
2019-03-09T12:42:43.434Z,0.40
2019-03-09T12:43:47.739Z,0.40
2019-03-09T12:44:52.109Z,0.40
2019-03-09T12:45:56.404Z,0.50
2019-03-09T12:47:00.680Z,0.82
2019-03-09T12:48:05.015Z,0.60
2019-03-09T12:49:09.279Z,1.02
2019-03-09T12:50:15.413Z,0.78
2019-03-09T12:51:19.813Z,0.72
2019-03-09T12:52:24.065Z,0.62
2019-03-09T12:53:28.383Z,0.85
2019-03-09T12:54:32.581Z,0.80
2019-03-09T12:55:36.763Z,0.70
2019-03-09T12:56:41.073Z,0.70
2019-03-09T12:57:45.325Z,0.60
2019-03-09T12:58:49.585Z,0.70
2019-03-09T12:59:53.776Z,0.75
2019-03-09T13:00:58.050Z,0.68
2019-03-09T13:02:02.398Z,0.60
2019-03-09T13:03:06.691Z,0.80
2019-03-09T13:04:12.453Z,1.00
2019-03-09T13:05:17.116Z,0.75
2019-03-09T13:06:21.338Z,0.68
2019-03-09T13:07:25.539Z,0.75
2019-03-09T13:08:29.742Z,0.68
2019-03-09T13:09:34.031Z,0.80
2019-03-09T13:10:38.323Z,0.57
2019-03-09T13:11:42.645Z,0.65
2019-03-09T13:12:47.176Z,0.60
2019-03-09T13:13:51.512Z,0.65
2019-03-09T13:14:55.843Z,0.82
2019-03-09T13:16:00.155Z,1.12
2019-03-09T13:17:04.500Z,0.62
2019-03-09T13:18:08.844Z,0.60
2019-03-09T13:19:13.158Z,0.60
2019-03-09T13:20:17.358Z,0.98
2019-03-09T13:21:21.565Z,0.82
2019-03-09T13:22:25.867Z,0.60
2019-03-09T13:23:30.199Z,0.80
2019-03-09T13:24:34.359Z,0.60
2019-03-09T13:25:38.823Z,0.60
2019-03-09T13:26:43.196Z,0.50
2019-03-09T13:27:47.472Z,0.68
2019-03-09T13:28:51.967Z,0.50
2019-03-09T13:29:56.229Z,0.50
2019-03-09T13:31:00.616Z,0.50
2019-03-09T13:32:04.951Z,0.50
2019-03-09T13:33:09.304Z,0.50
2019-03-09T13:34:13.695Z,0.70
2019-03-09T13:35:17.951Z,0.62
2019-03-09T13:36:22.514Z,0.50
2019-03-09T13:37:26.851Z,0.50
2019-03-09T13:38:31.023Z,0.50
2019-03-09T13:39:35.290Z,0.50
2019-03-09T13:40:39.655Z,0.50
2019-03-09T13:41:43.936Z,0.50
2019-03-09T13:42:48.268Z,0.50
2019-03-09T13:43:52.493Z,0.60
2019-03-09T13:44:56.790Z,0.80
2019-03-09T13:46:01.078Z,0.70
2019-03-09T13:47:05.278Z,0.60
2019-03-09T13:48:09.542Z,0.75
2019-03-09T13:49:13.848Z,0.82
2019-03-09T13:50:18.131Z,0.80
2019-03-09T13:51:22.466Z,0.50
2019-03-09T13:52:26.717Z,0.50
2019-03-09T13:53:31.024Z,0.50
2019-03-09T13:54:35.325Z,0.70
2019-03-09T13:55:39.617Z,0.50
2019-03-09T13:56:43.884Z,0.50
2019-03-09T13:57:48.184Z,0.50
2019-03-09T13:58:52.425Z,0.40
2019-03-09T13:59:56.694Z,0.50
2019-03-09T14:01:01.005Z,0.50
2019-03-09T14:02:05.297Z,0.50
2019-03-09T14:03:09.601Z,0.50
2019-03-09T14:04:13.987Z,0.57
2019-03-09T14:05:18.183Z,0.50
2019-03-09T14:06:22.783Z,0.50
2019-03-09T14:07:27.232Z,0.65
2019-03-09T14:08:31.531Z,0.55
2019-03-09T14:09:36.396Z,0.40
2019-03-09T14:10:40.717Z,0.55
2019-03-09T14:11:45.007Z,0.68
2019-03-09T14:12:49.304Z,0.40
2019-03-09T14:13:53.604Z,0.50
2019-03-09T14:14:57.897Z,0.50
2019-03-09T14:16:02.165Z,0.53
2019-03-09T14:17:06.440Z,0.50
2019-03-09T14:18:10.678Z,0.40
2019-03-09T14:19:14.918Z,0.55
2019-03-09T14:20:19.092Z,0.50
2019-03-09T14:21:23.272Z,0.40
2019-03-09T14:22:27.509Z,0.40
2019-03-09T14:23:31.660Z,0.40
2019-03-09T14:24:35.919Z,0.40
2019-03-09T14:25:40.212Z,0.50